createdAt,value
2023-01-19T00:00:41.755Z,960.53
2023-01-19T00:06:12.775Z,960.3
2023-01-19T00:11:44.376Z,960.53
2023-01-19T00:17:16.016Z,960.18
2023-01-19T00:22:47.891Z,960.46
2023-01-19T00:28:19.850Z,960.75
2023-01-19T00:33:52.016Z,960.23
2023-01-19T00:39:24.246Z,960.5
2023-01-19T00:44:59.252Z,959.98
2023-01-19T00:50:30.871Z,960.06
2023-01-19T00:56:02.672Z,960.02
2023-01-19T01:01:47.318Z,959.5
2023-01-19T01:07:05.945Z,959.43
2023-01-19T01:12:38.180Z,960.04
2023-01-19T01:18:09.506Z,959.72
2023-01-19T01:23:41.144Z,958.92
2023-01-19T01:29:12.732Z,959.11
2023-01-19T01:34:44.543Z,959.83
2023-01-19T01:40:16.081Z,959.74
2023-01-19T01:45:52.656Z,959.59
2023-01-19T01:51:24.376Z,959.87
2023-01-19T01:56:55.702Z,959.34
2023-01-19T02:02:27.451Z,958.64
2023-01-19T02:07:59.135Z,958.79
2023-01-19T02:13:31.268Z,958.29
2023-01-19T02:19:02.553Z,959.07
2023-01-19T02:24:34.392Z,958.96
2023-01-19T02:30:06.256Z,959.54
2023-01-19T02:35:37.922Z,959.65
2023-01-19T02:41:09.617Z,959.44
2023-01-19T02:46:45.628Z,959.75
2023-01-19T02:52:17.396Z,959.67
2023-01-19T02:57:49.489Z,960.08
2023-01-19T03:03:20.919Z,959.36
2023-01-19T03:08:52.887Z,959.84
2023-01-19T03:14:24.385Z,960.02
2023-01-19T03:19:55.996Z,958.79
2023-01-19T03:25:27.749Z,959.3
2023-01-19T03:30:59.703Z,960.33
2023-01-19T03:36:31.257Z,960.11
2023-01-19T03:42:02.736Z,959.99
2023-01-19T03:47:39.052Z,959.34
2023-01-19T03:53:10.936Z,960.0
2023-01-19T03:58:42.520Z,960.3
2023-01-19T04:04:14.232Z,959.46
2023-01-19T04:09:45.852Z,959.73
2023-01-19T04:15:17.492Z,960.73
2023-01-19T04:20:49.256Z,960.67
2023-01-19T04:26:21.110Z,960.11
2023-01-19T04:31:52.788Z,960.55
2023-01-19T04:37:24.560Z,959.67
2023-01-19T04:42:56.179Z,960.11
2023-01-19T04:48:34.276Z,959.51
2023-01-19T04:54:06.337Z,959.58
2023-01-19T04:59:37.880Z,958.76
2023-01-19T05:05:09.640Z,959.84
2023-01-19T05:10:42.033Z,959.45
2023-01-19T05:16:13.237Z,960.3
2023-01-19T05:21:44.856Z,960.65
2023-01-19T05:27:16.427Z,960.23
2023-01-19T05:32:48.337Z,960.3
2023-01-19T05:38:36.178Z,959.45
2023-01-19T05:43:51.613Z,960.36
2023-01-19T05:49:29.787Z,960.09
2023-01-19T05:55:01.508Z,959.32
2023-01-19T06:00:33.552Z,960.04
2023-01-19T06:06:04.911Z,959.73
2023-01-19T06:11:36.740Z,959.76
2023-01-19T06:17:08.447Z,960.07
2023-01-19T06:22:40.262Z,960.33
2023-01-19T06:28:11.749Z,960.69
2023-01-19T06:33:43.494Z,959.88
2023-01-19T06:39:15.359Z,959.15
2023-01-19T06:44:46.871Z,959.99
2023-01-19T06:50:23.047Z,960.22
2023-01-19T06:55:55.343Z,960.21
2023-01-19T07:01:26.769Z,960.6
2023-01-19T07:06:58.408Z,961.2
2023-01-19T07:12:29.998Z,960.98
2023-01-19T07:18:01.910Z,960.3
2023-01-19T07:23:33.671Z,960.43
2023-01-19T07:29:05.188Z,960.13
2023-01-19T07:34:37.060Z,960.52
2023-01-19T07:40:08.889Z,960.39
2023-01-19T07:45:40.677Z,960.61
2023-01-19T07:51:18.651Z,961.47
2023-01-19T07:56:50.716Z,961.27
2023-01-19T08:02:22.314Z,960.15
2023-01-19T08:07:55.299Z,960.77
2023-01-19T08:13:25.484Z,961.48
2023-01-19T08:18:57.241Z,961.5
2023-01-19T08:24:29.265Z,962.05
2023-01-19T08:30:01.128Z,963.08
2023-01-19T08:35:32.329Z,963.52
2023-01-19T08:41:04.567Z,963.25
2023-01-19T08:46:36.060Z,962.68
2023-01-19T08:52:12.072Z,962.68
2023-01-19T08:57:43.808Z,962.83
2023-01-19T09:03:15.590Z,962.62
2023-01-19T09:08:47.108Z,963.25
2023-01-19T09:14:19.245Z,963.54
2023-01-19T09:19:50.743Z,963.99
2023-01-19T09:25:22.567Z,964.08
2023-01-19T09:30:54.429Z,964.5
2023-01-19T09:36:25.955Z,964.49
2023-01-19T09:41:57.775Z,964.44
2023-01-19T09:47:29.287Z,965.03
2023-01-19T09:53:05.482Z,964.86
2023-01-19T09:58:37.116Z,965.78
2023-01-19T10:04:09.009Z,965.97
2023-01-19T10:09:40.956Z,966.03
2023-01-19T10:15:12.435Z,966.67
2023-01-19T10:20:44.154Z,966.49
2023-01-19T10:26:15.918Z,966.45
2023-01-19T10:31:47.887Z,966.75
2023-01-19T10:37:19.427Z,967.17
2023-01-19T10:42:51.147Z,966.88
2023-01-19T10:48:22.959Z,966.69
2023-01-19T10:53:59.284Z,966.57
2023-01-19T10:59:30.680Z,966.83
2023-01-19T11:05:02.249Z,967.34
2023-01-19T11:10:34.051Z,967.71
2023-01-19T11:16:05.919Z,967.71
2023-01-19T11:21:37.642Z,967.29
2023-01-19T11:27:09.529Z,967.96
2023-01-19T11:32:41.110Z,967.6
2023-01-19T11:38:12.830Z,968.54
2023-01-19T11:43:50.371Z,968.34
2023-01-19T11:49:16.114Z,967.62
2023-01-19T11:54:52.501Z,966.75
2023-01-19T12:00:23.961Z,966.66
2023-01-19T12:05:55.719Z,967.05
2023-01-19T12:11:27.426Z,966.35
2023-01-19T12:16:59.190Z,965.96
2023-01-19T12:22:31.605Z,966.74
2023-01-19T12:28:02.771Z,967.19
2023-01-19T12:33:34.425Z,967.09
2023-01-19T12:39:06.092Z,966.77
2023-01-19T12:44:37.955Z,967.01
2023-01-19T12:50:09.816Z,967.25
2023-01-19T12:55:45.970Z,966.87
2023-01-19T13:01:17.817Z,967.05
2023-01-19T13:06:49.508Z,967.7
2023-01-19T13:12:21.279Z,966.38
2023-01-19T13:17:53.227Z,966.85
2023-01-19T13:23:24.321Z,967.01
2023-01-19T13:28:56.063Z,966.96
2023-01-19T13:34:27.986Z,966.04
2023-01-19T13:40:00.374Z,966.5
2023-01-19T13:45:31.408Z,966.75
2023-01-19T13:51:02.866Z,967.46
2023-01-19T13:56:39.155Z,966.99
2023-01-19T14:02:11.069Z,967.46
2023-01-19T14:07:42.617Z,967.39
2023-01-19T14:13:14.385Z,967.9
2023-01-19T14:18:46.037Z,967.59
2023-01-19T14:24:17.931Z,968.25
2023-01-19T14:29:49.381Z,968.32
2023-01-19T14:35:21.333Z,967.59
2023-01-19T14:40:53.162Z,967.46
2023-01-19T14:46:24.807Z,967.89
2023-01-19T14:51:56.635Z,967.99
2023-01-19T14:57:34.619Z,967.99
2023-01-19T15:03:06.418Z,968.58
2023-01-19T15:08:38.178Z,968.07
2023-01-19T15:14:09.907Z,968.05
2023-01-19T15:19:41.784Z,968.84
2023-01-19T15:25:13.910Z,968.67
2023-01-19T15:30:45.332Z,968.75
2023-01-19T15:36:19.054Z,968.82
2023-01-19T15:41:48.354Z,968.58
2023-01-19T15:47:20.082Z,968.66
2023-01-19T15:52:51.927Z,968.11
2023-01-19T15:58:29.971Z,968.23
2023-01-19T16:04:02.060Z,968.45
2023-01-19T16:09:33.539Z,968.37
2023-01-19T16:15:05.464Z,968.06
2023-01-19T16:20:36.855Z,967.88
2023-01-19T16:26:08.764Z,967.64
2023-01-19T16:31:40.579Z,967.28
2023-01-19T16:37:12.492Z,967.6
2023-01-19T16:42:43.774Z,967.51
2023-01-19T16:48:15.739Z,967.48
2023-01-19T16:53:47.096Z,967.3
2023-01-19T16:59:23.463Z,967.16
2023-01-19T17:04:55.176Z,967.02
2023-01-19T17:10:26.696Z,966.68
2023-01-19T17:15:58.538Z,966.44
2023-01-19T17:21:30.279Z,966.23
2023-01-19T17:27:02.157Z,965.99
2023-01-19T17:32:33.683Z,965.9
2023-01-19T17:38:05.968Z,965.66
2023-01-19T17:43:37.535Z,965.5
2023-01-19T17:49:09.198Z,965.47
2023-01-19T17:54:41.063Z,965.32
2023-01-19T18:00:16.885Z,965.46
2023-01-19T18:05:48.776Z,965.51
2023-01-19T18:11:20.695Z,965.45
2023-01-19T18:16:52.295Z,965.69
2023-01-19T18:22:23.916Z,965.85
2023-01-19T18:27:56.267Z,965.92
2023-01-19T18:33:27.587Z,966.09
2023-01-19T18:38:59.170Z,966.22
2023-01-19T18:44:30.726Z,966.18
2023-01-19T18:50:02.410Z,966.02
2023-01-19T18:55:34.111Z,966.18
2023-01-19T19:01:10.865Z,965.94
2023-01-19T19:06:42.079Z,965.91
2023-01-19T19:12:14.120Z,965.95
2023-01-19T19:17:45.594Z,966.23
2023-01-19T19:23:17.079Z,966.06
2023-01-19T19:28:48.902Z,966.13
2023-01-19T19:34:20.882Z,966.37
2023-01-19T19:39:52.490Z,966.43
2023-01-19T19:45:24.198Z,966.81
2023-01-19T19:50:56.665Z,966.59
2023-01-19T19:56:27.569Z,966.65
2023-01-19T20:02:04.228Z,966.79
2023-01-19T20:07:35.620Z,966.43
2023-01-19T20:13:09.937Z,966.38
2023-01-19T20:18:38.896Z,966.34
2023-01-19T20:24:10.756Z,966.19
2023-01-19T20:29:42.486Z,966.22
2023-01-19T20:35:14.963Z,966.33
2023-01-19T20:40:46.281Z,966.45
2023-01-19T20:46:17.551Z,966.44
2023-01-19T20:51:49.490Z,966.49
2023-01-19T20:57:21.183Z,966.58
2023-01-19T21:02:57.170Z,966.58
2023-01-19T21:08:28.911Z,966.54
2023-01-19T21:14:00.413Z,966.56
2023-01-19T21:19:32.572Z,966.64
2023-01-19T21:25:03.877Z,966.68
2023-01-19T21:30:35.711Z,966.71
2023-01-19T21:36:07.562Z,966.7
2023-01-19T21:41:39.302Z,966.78
2023-01-19T21:47:11.021Z,966.85
2023-01-19T21:52:42.528Z,966.51
2023-01-19T21:58:14.527Z,966.47
2023-01-19T22:03:50.573Z,966.28
2023-01-19T22:09:22.200Z,966.56
2023-01-19T22:14:54.109Z,966.72
2023-01-19T22:20:25.672Z,966.59
2023-01-19T22:25:57.451Z,966.62
2023-01-19T22:31:29.597Z,966.62
2023-01-19T22:37:01.088Z,966.06
2023-01-19T22:42:32.872Z,966.0
2023-01-19T22:48:04.280Z,965.97
2023-01-19T22:53:36.177Z,965.97
2023-01-19T22:59:08.092Z,966.04
2023-01-19T23:04:44.144Z,966.36
2023-01-19T23:10:15.593Z,966.41
2023-01-19T23:15:47.902Z,966.45
2023-01-19T23:21:19.884Z,966.42
2023-01-19T23:26:50.732Z,966.49
2023-01-19T23:32:22.558Z,966.68
2023-01-19T23:37:54.262Z,966.77
2023-01-19T23:43:25.877Z,966.77
2023-01-19T23:48:57.530Z,966.73
2023-01-19T23:54:30.135Z,966.93
